Time;durP1;ratioP1;P1;durP2;ratioP2;P2;SDS_P1;SDS_P2;PMS_P1;PMS_P2;Temp;Humidity;BMP_temperature;BMP_pressure;BME280_temperature;BME280_humidity;BME280_pressure;Samples;Min_cycle;Max_cycle;Signal;HPM_P1;HPM_P2
2024/03/20 00:00:24;;;;;;;5.88;3.78;;;12.20;97.60;;;;;;2094480;28;20420;-65
2024/03/20 00:01:25;;;;;;;5.40;3.15;;;12.30;97.70;;;;;;2093818;28;20017;-64
2024/03/20 00:02:28;;;;;;;4.70;3.08;;;12.30;97.70;;;;;;2093770;28;20029;-65
2024/03/20 00:03:29;;;;;;;4.28;2.97;;;12.30;97.60;;;;;;2092744;28;20029;-64
2024/03/20 00:04:29;;;;;;;5.57;3.08;;;12.20;97.60;;;;;;2092979;28;20074;-65
2024/03/20 00:05:30;;;;;;;4.15;2.85;;;12.20;97.60;;;;;;2086960;28;20048;-65
2024/03/20 00:06:33;;;;;;;4.57;3.20;;;12.30;97.70;;;;;;2086667;28;20059;-65
2024/03/20 00:07:34;;;;;;;3.83;3.03;;;12.30;97.80;;;;;;2093331;28;20028;-64
2024/03/20 00:08:35;;;;;;;4.07;3.20;;;12.20;97.70;;;;;;2094365;28;20516;-65
2024/03/20 00:09:36;;;;;;;5.18;2.92;;;12.20;97.70;;;;;;2093113;28;20099;-70
2024/03/20 00:10:37;;;;;;;9.10;3.40;;;12.20;97.80;;;;;;2093032;28;20071;-71
2024/03/20 00:11:37;;;;;;;3.80;3.05;;;12.20;97.80;;;;;;2091939;28;20025;-71
2024/03/20 00:12:41;;;;;;;4.88;3.10;;;12.20;97.90;;;;;;2082251;28;20104;-72
2024/03/20 00:13:44;;;;;;;4.93;3.05;;;12.20;97.90;;;;;;2083075;28;20163;-71
2024/03/20 00:14:51;;;;;;;5.63;3.10;;;12.20;97.90;;;;;;2091077;28;20040;-73
2024/03/20 00:15:52;;;;;;;5.35;3.42;;;12.20;98.00;;;;;;2091851;28;20111;-72
2024/03/20 00:16:53;;;;;;;5.28;2.90;;;12.20;98.10;;;;;;2092511;28;20028;-73
2024/03/20 00:17:54;;;;;;;4.00;3.13;;;12.10;97.90;;;;;;2091542;28;20033;-71
2024/03/20 00:18:54;;;;;;;7.30;3.53;;;12.20;98.00;;;;;;2091330;28;20040;-70
2024/03/20 00:19:55;;;;;;;5.20;3.40;;;12.20;98.00;;;;;;2094739;28;20044;-71
2024/03/20 00:20:58;;;;;;;4.60;2.90;;;12.10;98.00;;;;;;2091989;28;20108;-72
2024/03/20 00:22:02;;;;;;;4.78;2.88;;;12.10;98.10;;;;;;2092317;28;20036;-70
2024/03/20 00:23:02;;;;;;;5.90;2.92;;;12.10;98.10;;;;;;2084727;28;20103;-73
2024/03/20 00:24:03;;;;;;;3.50;2.92;;;12.10;98.40;;;;;;2085279;28;20124;-71
2024/03/20 00:25:05;;;;;;;4.63;2.97;;;12.10;98.10;;;;;;2092874;28;20033;-71
2024/03/20 00:26:06;;;;;;;6.25;3.30;;;12.10;98.10;;;;;;2091975;28;20033;-71
2024/03/20 00:27:07;;;;;;;4.43;2.90;;;12.10;98.20;;;;;;2092214;28;20028;-71
2024/03/20 00:28:07;;;;;;;5.25;3.08;;;12.00;98.50;;;;;;2087728;28;20017;-71
2024/03/20 00:29:08;;;;;;;4.80;3.30;;;12.10;98.30;;;;;;2087065;28;20032;-71
2024/03/20 00:30:09;;;;;;;5.90;3.15;;;12.10;98.30;;;;;;2088031;28;20481;-71
2024/03/20 00:31:10;;;;;;;7.05;3.17;;;12.10;98.30;;;;;;2087822;28;20052;-72
2024/03/20 00:32:10;;;;;;;6.28;4.00;;;12.10;98.40;;;;;;2093365;28;20552;-71
2024/03/20 00:33:11;;;;;;;5.60;3.25;;;12.10;98.50;;;;;;2092259;28;20024;-73
2024/03/20 00:34:12;;;;;;;5.40;2.95;;;12.10;98.50;;;;;;2095041;28;20056;-73
2024/03/20 00:35:14;;;;;;;3.38;2.90;;;12.10;98.50;;;;;;2091941;28;20839;-73
2024/03/20 00:36:14;;;;;;;4.80;3.05;;;12.00;98.50;;;;;;2093683;28;20035;-73
2024/03/20 00:37:15;;;;;;;3.38;2.70;;;12.00;98.50;;;;;;2092595;28;20031;-73
2024/03/20 00:38:15;;;;;;;4.75;2.80;;;12.00;98.60;;;;;;2092897;28;20052;-72
2024/03/20 00:39:16;;;;;;;4.75;3.22;;;12.00;98.60;;;;;;2093497;28;20040;-73
2024/03/20 00:40:17;;;;;;;4.75;3.22;;;12.00;98.60;;;;;;2088857;28;20018;-71
2024/03/20 00:41:18;;;;;;;4.57;2.92;;;12.00;98.60;;;;;;2089827;28;20485;-71
2024/03/20 00:42:18;;;;;;;4.50;3.00;;;12.00;98.60;;;;;;2094804;28;20029;-71
2024/03/20 00:43:19;;;;;;;3.78;2.85;;;12.00;98.70;;;;;;2093252;28;20127;-70
2024/03/20 00:44:20;;;;;;;3.92;2.80;;;12.00;98.70;;;;;;2093832;28;20029;-70
2024/03/20 00:45:21;;;;;;;3.22;2.92;;;12.00;98.80;;;;;;2093614;28;20488;-72
2024/03/20 00:46:21;;;;;;;5.70;3.10;;;12.00;98.80;;;;;;2093138;28;20070;-72
2024/03/20 00:47:22;;;;;;;3.17;2.30;;;11.90;98.80;;;;;;2091905;28;20079;-73
2024/03/20 00:48:22;;;;;;;4.13;3.08;;;11.90;98.90;;;;;;2092939;28;20115;-72
2024/03/20 00:49:23;;;;;;;5.47;3.00;;;11.90;98.90;;;;;;2092756;28;20033;-72
2024/03/20 00:50:24;;;;;;;4.72;2.80;;;11.90;99.00;;;;;;2091570;28;20028;-70
2024/03/20 00:51:24;;;;;;;6.20;3.03;;;11.90;99.00;;;;;;2093348;28;20078;-71
2024/03/20 00:52:25;;;;;;;5.72;3.00;;;11.90;99.10;;;;;;2092764;28;20035;-71
2024/03/20 00:53:26;;;;;;;7.75;3.30;;;11.90;99.10;;;;;;2092653;28;20021;-70
2024/03/20 00:54:27;;;;;;;4.30;2.85;;;11.80;99.10;;;;;;2094627;28;20110;-72
2024/03/20 00:55:27;;;;;;;5.28;3.20;;;11.80;99.10;;;;;;2093857;28;20028;-71
2024/03/20 00:56:28;;;;;;;5.35;3.17;;;11.80;99.20;;;;;;2092239;28;20017;-71
2024/03/20 00:57:29;;;;;;;5.53;2.80;;;11.80;99.20;;;;;;2091129;28;20062;-70
2024/03/20 00:58:30;;;;;;;4.93;3.03;;;11.80;99.30;;;;;;2092701;28;20472;-72
2024/03/20 00:59:30;;;;;;;5.25;2.78;;;11.80;99.30;;;;;;2091864;28;20194;-72
2024/03/20 01:00:31;;;;;;;3.80;2.78;;;11.80;99.30;;;;;;2093123;28;20068;-71
2024/03/20 01:01:32;;;;;;;5.60;3.33;;;11.80;99.30;;;;;;2091592;28;20024;-71
2024/03/20 01:02:32;;;;;;;5.28;3.20;;;11.80;99.40;;;;;;2092126;28;20370;-71
2024/03/20 01:03:33;;;;;;;5.93;3.55;;;11.80;99.40;;;;;;2092796;28;20415;-71
2024/03/20 01:04:33;;;;;;;3.83;3.03;;;11.80;99.40;;;;;;2091193;28;20047;-72
2024/03/20 01:05:34;;;;;;;4.13;3.30;;;11.80;99.50;;;;;;2094698;28;20051;-71
2024/03/20 01:06:35;;;;;;;6.18;3.10;;;11.70;99.50;;;;;;2094076;28;20076;-70
2024/03/20 01:07:36;;;;;;;4.43;3.10;;;11.70;99.40;;;;;;2092797;28;20508;-71
2024/03/20 01:08:43;;;;;;;4.47;2.97;;;11.70;99.40;;;;;;2093813;28;20047;-72
2024/03/20 01:09:43;;;;;;;6.25;3.10;;;11.70;99.40;;;;;;2090387;28;20546;-73
2024/03/20 01:10:44;;;;;;;4.72;2.78;;;11.70;99.40;;;;;;2091446;28;20045;-73
2024/03/20 01:11:45;;;;;;;5.72;3.00;;;11.70;99.40;;;;;;2093706;28;20017;-71
2024/03/20 01:12:45;;;;;;;3.40;2.80;;;11.70;99.40;;;;;;2092210;28;20032;-72
2024/03/20 01:13:46;;;;;;;4.78;3.22;;;11.60;99.40;;;;;;2092338;28;20787;-72
2024/03/20 01:14:46;;;;;;;6.72;3.47;;;11.70;99.40;;;;;;2093057;28;20067;-71
2024/03/20 01:15:47;;;;;;;4.90;3.03;;;11.70;99.40;;;;;;2092777;28;20969;-71
2024/03/20 01:16:48;;;;;;;5.47;3.13;;;11.60;99.40;;;;;;2094560;28;20025;-68
2024/03/20 01:17:49;;;;;;;4.75;3.25;;;11.60;99.30;;;;;;2089132;28;20133;-70
2024/03/20 01:18:49;;;;;;;4.38;3.25;;;11.60;99.30;;;;;;2091162;28;20029;-71
2024/03/20 01:19:50;;;;;;;4.65;3.17;;;11.60;99.40;;;;;;2091690;28;20049;-70
2024/03/20 01:20:50;;;;;;;9.15;3.28;;;11.60;99.40;;;;;;2092812;28;20449;-71
2024/03/20 01:21:55;;;;;;;5.85;3.08;;;11.60;99.40;;;;;;2091584;28;20029;-71
2024/03/20 01:22:59;;;;;;;3.90;2.75;;;11.60;99.40;;;;;;2093387;28;20188;-73
2024/03/20 01:24:00;;;;;;;4.28;2.70;;;11.60;99.40;;;;;;2094073;28;20086;-70
2024/03/20 01:25:04;;;;;;;5.80;3.38;;;11.50;99.30;;;;;;2092237;28;20067;-73
2024/03/20 01:26:05;;;;;;;4.35;2.83;;;11.50;99.40;;;;;;2092140;28;20399;-71
2024/03/20 01:27:06;;;;;;;4.38;2.40;;;11.50;99.40;;;;;;2092210;28;20025;-73
2024/03/20 01:28:06;;;;;;;4.22;3.22;;;11.50;99.40;;;;;;2093843;28;20082;-71
2024/03/20 01:29:07;;;;;;;5.50;3.05;;;11.50;99.50;;;;;;2095785;28;20016;-70
2024/03/20 01:30:08;;;;;;;3.42;2.55;;;11.50;99.40;;;;;;2092905;28;20037;-70
2024/03/20 01:31:08;;;;;;;2.90;2.70;;;11.50;99.40;;;;;;2095281;28;20056;-71
2024/03/20 01:32:09;;;;;;;4.30;2.95;;;11.50;99.40;;;;;;2095050;28;20029;-72
2024/03/20 01:33:09;;;;;;;3.78;2.88;;;11.50;99.30;;;;;;2093347;28;20029;-72
2024/03/20 01:34:10;;;;;;;7.00;3.42;;;11.40;99.30;;;;;;2094492;28;20035;-72
2024/03/20 01:35:10;;;;;;;8.85;3.50;;;11.40;99.40;;;;;;2094911;28;20025;-72
2024/03/20 01:36:11;;;;;;;4.13;3.10;;;11.40;99.50;;;;;;2093278;28;20028;-72
2024/03/20 01:37:15;;;;;;;4.53;3.10;;;11.40;99.60;;;;;;2095542;28;20024;-72
2024/03/20 01:38:15;;;;;;;4.80;3.08;;;11.40;99.80;;;;;;2093087;28;20049;-71
2024/03/20 01:39:17;;;;;;;3.42;2.47;;;11.40;99.80;;;;;;2095467;28;20087;-72
2024/03/20 01:40:18;;;;;;;5.43;2.78;;;11.40;99.80;;;;;;2094602;28;20040;-72
2024/03/20 01:41:21;;;;;;;6.53;3.50;;;11.40;99.80;;;;;;2093143;28;20029;-71
2024/03/20 01:42:22;;;;;;;6.78;3.17;;;11.30;99.80;;;;;;2094363;28;20093;-70
2024/03/20 01:43:22;;;;;;;5.45;3.22;;;11.30;99.90;;;;;;2093351;28;20068;-71
2024/03/20 01:44:23;;;;;;;5.30;3.33;;;11.30;99.90;;;;;;2093716;28;20033;-71
2024/03/20 01:45:24;;;;;;;8.20;2.95;;;11.30;99.90;;;;;;2094669;28;20024;-71
2024/03/20 01:46:25;;;;;;;4.03;2.80;;;11.30;99.90;;;;;;2093839;28;20071;-69
2024/03/20 01:47:26;;;;;;;5.10;3.30;;;11.30;99.90;;;;;;2093663;28;20461;-69
2024/03/20 01:48:26;;;;;;;6.28;3.35;;;11.30;99.90;;;;;;2092298;28;20444;-70
2024/03/20 01:49:28;;;;;;;6.93;2.95;;;11.20;99.90;;;;;;2085556;28;20033;-71
2024/03/20 01:50:28;;;;;;;3.30;2.78;;;11.20;99.90;;;;;;2084412;28;20020;-70
2024/03/20 01:51:29;;;;;;;4.72;3.38;;;11.20;99.90;;;;;;2094659;28;20377;-71
2024/03/20 01:52:30;;;;;;;3.60;2.80;;;11.20;99.90;;;;;;2092877;28;20120;-70
2024/03/20 01:53:31;;;;;;;4.95;3.13;;;11.20;99.90;;;;;;2092810;28;20024;-72
2024/03/20 01:54:32;;;;;;;3.22;2.65;;;11.20;99.90;;;;;;2094360;28;20033;-71
2024/03/20 01:55:36;;;;;;;5.57;3.08;;;11.10;99.90;;;;;;2095275;28;20032;-71
2024/03/20 01:56:39;;;;;;;5.82;3.33;;;11.20;99.90;;;;;;2086562;28;20025;-71
2024/03/20 01:57:40;;;;;;;5.85;3.38;;;11.20;99.90;;;;;;2087880;28;20112;-72
2024/03/20 01:58:40;;;;;;;5.75;3.50;;;11.10;99.90;;;;;;2095967;28;20029;-71
2024/03/20 01:59:41;;;;;;;3.75;3.25;;;11.10;99.90;;;;;;2096486;28;20028;-72
2024/03/20 02:00:42;;;;;;;5.82;3.03;;;11.10;99.90;;;;;;2093439;28;20044;-72
2024/03/20 02:01:42;;;;;;;5.80;3.38;;;11.10;99.90;;;;;;2095322;28;20044;-72
2024/03/20 02:02:44;;;;;;;6.35;2.97;;;11.10;99.90;;;;;;2094051;28;20036;-72
2024/03/20 02:03:45;;;;;;;4.90;2.83;;;11.10;99.90;;;;;;2093087;28;20042;-71
2024/03/20 02:04:45;;;;;;;6.97;3.47;;;11.10;99.90;;;;;;2093351;28;20431;-71
2024/03/20 02:05:46;;;;;;;6.60;2.95;;;11.00;99.90;;;;;;2093014;28;20092;-71
2024/03/20 02:06:46;;;;;;;3.22;2.08;;;11.00;99.90;;;;;;2091563;28;20024;-71
2024/03/20 02:07:47;;;;;;;4.65;2.88;;;11.00;99.90;;;;;;2094368;28;20032;-72
2024/03/20 02:08:52;;;;;;;3.92;3.05;;;11.00;99.90;;;;;;2094651;28;20025;-72
2024/03/20 02:09:52;;;;;;;4.68;3.22;;;11.00;99.90;;;;;;2094612;28;20043;-72
2024/03/20 02:10:53;;;;;;;3.10;2.80;;;11.00;99.90;;;;;;2093223;28;20024;-71
2024/03/20 02:11:54;;;;;;;5.68;2.95;;;11.00;99.90;;;;;;2092713;28;20083;-71
2024/03/20 02:13:06;;;;;;;3.00;2.70;;;10.90;99.90;;;;;;2085577;28;20021;-72
2024/03/20 02:14:08;;;;;;;5.15;2.72;;;11.00;99.90;;;;;;2087678;28;20043;-73
2024/03/20 02:15:09;;;;;;;4.53;2.70;;;10.90;99.90;;;;;;2093486;28;20437;-72
2024/03/20 02:16:10;;;;;;;4.50;2.95;;;10.90;99.90;;;;;;2094496;28;20086;-68
2024/03/20 02:17:13;;;;;;;6.57;3.00;;;10.90;99.90;;;;;;2096238;28;20086;-71
2024/03/20 02:18:13;;;;;;;3.40;2.80;;;10.90;99.90;;;;;;2093132;28;20021;-71
2024/03/20 02:19:14;;;;;;;3.55;3.00;;;10.90;99.90;;;;;;2092578;28;20036;-71
2024/03/20 02:20:15;;;;;;;4.55;3.10;;;10.90;99.90;;;;;;2095344;28;20586;-71
2024/03/20 02:21:17;;;;;;;8.35;3.20;;;10.90;99.90;;;;;;2090909;28;20024;-70
2024/03/20 02:22:18;;;;;;;4.45;2.55;;;10.90;99.90;;;;;;2086423;28;20056;-72
2024/03/20 02:23:19;;;;;;;6.15;3.38;;;10.80;99.90;;;;;;2084646;28;20021;-72
2024/03/20 02:24:19;;;;;;;5.60;3.28;;;10.80;99.90;;;;;;2093084;28;20021;-72
2024/03/20 02:25:23;;;;;;;4.93;3.00;;;10.80;99.90;;;;;;2094569;28;20032;-71
2024/03/20 02:26:24;;;;;;;2.70;2.40;;;10.80;99.90;;;;;;2093362;28;20033;-71
2024/03/20 02:27:24;;;;;;;3.72;2.92;;;10.80;99.90;;;;;;2089664;28;20068;-72
2024/03/20 02:28:25;;;;;;;5.35;2.80;;;10.80;99.90;;;;;;2089769;28;20021;-72
2024/03/20 02:29:25;;;;;;;4.18;2.80;;;10.80;99.90;;;;;;2090163;28;20115;-69
2024/03/20 02:30:26;;;;;;;5.70;3.38;;;10.70;99.90;;;;;;2093358;28;20021;-71
2024/03/20 02:31:27;;;;;;;3.25;2.95;;;10.70;99.90;;;;;;2096138;28;20027;-69
2024/03/20 02:32:30;;;;;;;3.38;2.85;;;10.70;99.90;;;;;;2094479;28;20052;-70
2024/03/20 02:33:35;;;;;;;3.72;2.80;;;10.70;99.90;;;;;;2094055;28;20085;-71
2024/03/20 02:34:38;;;;;;;4.25;2.85;;;10.70;99.90;;;;;;2093349;28;20032;-70
2024/03/20 02:35:42;;;;;;;4.15;3.05;;;10.70;99.90;;;;;;2094363;28;20028;-71
2024/03/20 02:36:46;;;;;;;4.57;3.00;;;10.70;99.90;;;;;;2094725;28;20029;-71
2024/03/20 02:37:46;;;;;;;4.53;3.30;;;10.60;99.90;;;;;;2094097;28;20024;-71
2024/03/20 02:38:47;;;;;;;3.50;3.13;;;10.70;99.90;;;;;;2092221;28;20481;-71
2024/03/20 02:39:47;;;;;;;3.03;2.72;;;10.60;99.90;;;;;;2091949;28;20024;-71
2024/03/20 02:40:52;;;;;;;3.35;3.05;;;10.60;99.90;;;;;;2090525;28;20022;-71
2024/03/20 02:41:53;;;;;;;4.93;2.72;;;10.60;99.90;;;;;;2094627;28;20036;-70
2024/03/20 02:42:53;;;;;;;4.30;2.60;;;10.60;99.90;;;;;;2093313;28;20029;-73
2024/03/20 02:43:56;;;;;;;5.15;2.90;;;10.50;99.90;;;;;;2095041;28;20021;-72
2024/03/20 02:44:56;;;;;;;3.88;3.08;;;10.50;99.90;;;;;;2093579;28;20033;-73
2024/03/20 02:45:57;;;;;;;3.42;2.80;;;10.50;99.90;;;;;;2094813;28;20071;-71
2024/03/20 02:46:58;;;;;;;3.22;2.70;;;10.50;99.90;;;;;;2094288;28;20021;-71
2024/03/20 02:47:58;;;;;;;5.70;3.10;;;10.50;99.90;;;;;;2093505;28;20545;-71
2024/03/20 02:48:59;;;;;;;3.33;2.95;;;10.50;99.90;;;;;;2093046;28;20043;-71
2024/03/20 02:50:00;;;;;;;2.70;2.47;;;10.50;99.90;;;;;;2093784;28;20461;-70
2024/03/20 02:51:02;;;;;;;3.65;2.45;;;10.50;99.90;;;;;;2092412;28;20060;-70
2024/03/20 02:52:02;;;;;;;5.70;2.72;;;10.50;99.90;;;;;;2085170;28;20036;-71
2024/03/20 02:53:04;;;;;;;3.75;2.75;;;10.50;99.90;;;;;;2085063;28;20140;-71
2024/03/20 02:54:04;;;;;;;2.85;2.55;;;10.50;99.90;;;;;;2094073;28;20472;-71
2024/03/20 02:55:05;;;;;;;4.80;3.13;;;10.40;99.90;;;;;;2091754;28;20033;-71
2024/03/20 02:56:06;;;;;;;4.53;3.13;;;10.40;99.90;;;;;;2094712;28;20036;-69
2024/03/20 02:57:06;;;;;;;3.78;2.83;;;10.40;99.90;;;;;;2092916;28;20586;-72
2024/03/20 02:58:10;;;;;;;4.70;3.30;;;10.40;99.90;;;;;;2092545;28;20353;-71
2024/03/20 02:59:11;;;;;;;4.13;2.90;;;10.40;99.90;;;;;;2092291;28;20027;-71
2024/03/20 03:00:15;;;;;;;4.18;3.13;;;10.40;99.90;;;;;;2094011;28;20029;-71
2024/03/20 03:01:15;;;;;;;4.63;3.13;;;10.40;99.90;;;;;;2092816;28;20025;-71
2024/03/20 03:02:16;;;;;;;4.20;2.90;;;10.40;99.90;;;;;;2092793;28;20033;-71
2024/03/20 03:03:16;;;;;;;5.70;2.97;;;10.40;99.90;;;;;;2086862;28;20052;-71
2024/03/20 03:04:17;;;;;;;3.95;2.85;;;10.30;99.90;;;;;;2087427;28;20062;-72
2024/03/20 03:05:18;;;;;;;5.47;3.13;;;10.30;99.90;;;;;;2095327;28;20024;-71
2024/03/20 03:06:19;;;;;;;5.97;2.95;;;10.30;99.90;;;;;;2094590;28;20025;-72
2024/03/20 03:07:19;;;;;;;2.95;2.60;;;10.30;99.90;;;;;;2094597;28;20021;-72
2024/03/20 03:08:20;;;;;;;5.18;3.22;;;10.30;99.90;;;;;;2092081;28;20020;-72
2024/03/20 03:09:21;;;;;;;4.68;2.88;;;10.30;99.90;;;;;;2093428;28;20029;-72
2024/03/20 03:10:22;;;;;;;2.95;2.60;;;10.30;99.90;;;;;;2094651;28;20909;-71
2024/03/20 03:11:23;;;;;;;4.63;3.20;;;10.30;99.90;;;;;;2093846;28;20089;-71
2024/03/20 03:12:23;;;;;;;4.55;3.30;;;10.30;99.90;;;;;;2094179;28;20058;-69
2024/03/20 03:13:24;;;;;;;3.85;2.80;;;10.30;99.90;;;;;;2094330;28;20528;-71
2024/03/20 03:14:25;;;;;;;4.43;2.80;;;10.20;99.90;;;;;;2093701;28;20403;-72
2024/03/20 03:15:25;;;;;;;5.88;3.00;;;10.20;99.90;;;;;;2094033;28;20093;-71
2024/03/20 03:16:26;;;;;;;3.38;2.80;;;10.20;99.90;;;;;;2093389;28;20373;-70
2024/03/20 03:17:27;;;;;;;5.03;3.13;;;10.20;99.90;;;;;;2093160;28;20104;-71
2024/03/20 03:18:27;;;;;;;3.25;2.92;;;10.20;99.90;;;;;;2094678;28;20435;-72
2024/03/20 03:19:28;;;;;;;6.80;2.97;;;10.20;99.90;;;;;;2093723;28;20082;-71
2024/03/20 03:20:28;;;;;;;5.07;2.60;;;10.20;99.90;;;;;;2093758;28;20041;-70
2024/03/20 03:21:29;;;;;;;4.20;2.90;;;10.20;99.90;;;;;;2093961;28;20025;-71
2024/03/20 03:22:29;;;;;;;5.03;2.88;;;10.20;99.90;;;;;;2094157;28;20206;-72
2024/03/20 03:23:30;;;;;;;3.28;2.97;;;10.20;99.90;;;;;;2093512;28;20635;-71
2024/03/20 03:24:31;;;;;;;4.40;3.15;;;10.10;99.90;;;;;;2093536;28;20020;-71
2024/03/20 03:25:31;;;;;;;2.85;2.65;;;10.20;99.90;;;;;;2093096;28;20038;-71
2024/03/20 03:26:32;;;;;;;4.20;2.90;;;10.10;99.90;;;;;;2094733;28;20079;-71
2024/03/20 03:27:32;;;;;;;3.83;2.75;;;10.10;99.90;;;;;;2093247;28;20504;-70
2024/03/20 03:28:33;;;;;;;3.63;2.88;;;10.10;99.90;;;;;;2092101;28;20084;-72
2024/03/20 03:29:33;;;;;;;4.00;2.97;;;10.10;99.90;;;;;;2082894;28;20036;-66
2024/03/20 03:30:34;;;;;;;3.30;3.00;;;10.10;99.90;;;;;;2084816;28;20040;-66
2024/03/20 03:31:36;;;;;;;5.93;2.80;;;10.10;99.90;;;;;;2093815;28;20029;-65
2024/03/20 03:32:37;;;;;;;3.80;2.70;;;10.10;99.90;;;;;;2092723;28;20881;-65
2024/03/20 03:33:38;;;;;;;4.32;2.80;;;10.10;99.90;;;;;;2094466;28;20401;-65
2024/03/20 03:34:38;;;;;;;4.07;2.72;;;10.10;99.90;;;;;;2092643;28;20028;-65
2024/03/20 03:35:39;;;;;;;6.55;3.00;;;10.10;99.90;;;;;;2093856;28;20025;-65
2024/03/20 03:36:39;;;;;;;5.63;2.97;;;10.10;99.90;;;;;;2094367;28;20085;-66
2024/03/20 03:37:43;;;;;;;5.45;2.70;;;10.10;99.90;;;;;;2091440;28;20032;-65
2024/03/20 03:38:43;;;;;;;3.42;2.83;;;10.10;99.90;;;;;;2095084;28;20469;-66
2024/03/20 03:39:44;;;;;;;4.13;2.78;;;10.10;99.90;;;;;;2093823;28;20869;-65
2024/03/20 03:40:45;;;;;;;3.10;2.67;;;10.10;99.90;;;;;;2092594;28;20036;-66
2024/03/20 03:41:46;;;;;;;4.15;2.97;;;10.10;99.90;;;;;;2094016;28;20038;-65
2024/03/20 03:42:46;;;;;;;2.90;2.70;;;10.00;99.90;;;;;;2093424;28;20079;-66
2024/03/20 03:43:47;;;;;;;3.88;2.90;;;10.10;99.90;;;;;;2093184;28;20032;-65
2024/03/20 03:44:47;;;;;;;4.97;3.70;;;10.10;99.90;;;;;;2092518;28;20186;-65
2024/03/20 03:45:48;;;;;;;3.95;3.20;;;10.00;99.90;;;;;;2092010;28;20051;-65
2024/03/20 03:46:51;;;;;;;4.75;3.20;;;10.00;99.90;;;;;;2094315;28;20419;-65
2024/03/20 03:47:51;;;;;;;3.83;2.97;;;10.00;99.90;;;;;;2093048;28;20071;-66
2024/03/20 03:48:52;;;;;;;3.95;2.65;;;10.00;99.90;;;;;;2093290;28;20477;-65
2024/03/20 03:49:53;;;;;;;5.32;3.20;;;10.00;99.90;;;;;;2093575;28;20025;-66
2024/03/20 03:50:53;;;;;;;4.95;3.20;;;10.00;99.90;;;;;;2084556;28;20044;-66
2024/03/20 03:51:54;;;;;;;4.15;3.50;;;10.00;99.90;;;;;;2086711;28;20013;-66
2024/03/20 03:52:54;;;;;;;6.03;3.42;;;10.00;99.90;;;;;;2093307;28;20059;-66
2024/03/20 03:53:55;;;;;;;5.78;3.35;;;10.00;99.90;;;;;;2093619;28;20032;-65
2024/03/20 03:54:55;;;;;;;5.03;3.05;;;10.00;99.90;;;;;;2093045;28;20037;-65
2024/03/20 03:55:56;;;;;;;3.78;3.30;;;10.00;99.90;;;;;;2093214;28;20047;-66
2024/03/20 03:56:57;;;;;;;4.10;3.03;;;10.00;99.90;;;;;;2092534;28;20393;-64
2024/03/20 03:57:58;;;;;;;5.40;2.80;;;10.00;99.90;;;;;;2082439;28;20040;-67
2024/03/20 03:58:58;;;;;;;3.22;2.42;;;10.00;99.90;;;;;;2093414;28;20488;-65
2024/03/20 03:59:59;;;;;;;3.70;2.75;;;10.00;99.90;;;;;;2093421;28;20036;-65
2024/03/20 04:01:00;;;;;;;4.85;3.47;;;10.00;99.90;;;;;;2092504;28;20111;-66
2024/03/20 04:02:00;;;;;;;3.00;2.78;;;10.00;99.90;;;;;;2090679;28;20122;-65
2024/03/20 04:03:01;;;;;;;3.70;2.63;;;10.00;99.90;;;;;;2092537;28;20639;-65
2024/03/20 04:04:02;;;;;;;3.85;3.20;;;10.00;99.90;;;;;;2093735;28;20024;-65
2024/03/20 04:05:04;;;;;;;4.00;2.88;;;9.90;99.90;;;;;;2092033;28;20212;-65
2024/03/20 04:06:05;;;;;;;2.85;2.63;;;10.00;99.90;;;;;;2092665;28;20032;-65
2024/03/20 04:07:05;;;;;;;4.38;2.60;;;10.00;99.90;;;;;;2093431;28;20035;-65
2024/03/20 04:08:06;;;;;;;6.28;2.70;;;9.90;99.90;;;;;;2094015;28;20029;-65
2024/03/20 04:09:07;;;;;;;4.88;2.90;;;10.00;99.90;;;;;;2094540;28;20034;-65
2024/03/20 04:10:08;;;;;;;3.72;2.92;;;10.00;99.90;;;;;;2093194;28;20031;-65
2024/03/20 04:11:08;;;;;;;5.43;2.90;;;9.90;99.90;;;;;;2093898;28;20159;-66
2024/03/20 04:12:09;;;;;;;4.13;2.58;;;9.90;99.90;;;;;;2091669;28;20016;-65
2024/03/20 04:13:09;;;;;;;6.53;3.03;;;9.90;99.90;;;;;;2093094;28;20052;-65
2024/03/20 04:14:10;;;;;;;3.03;2.72;;;9.90;99.90;;;;;;2091311;28;20366;-65
2024/03/20 04:15:10;;;;;;;4.18;3.08;;;9.90;99.90;;;;;;2093601;28;20413;-65
2024/03/20 04:16:11;;;;;;;4.15;3.15;;;9.90;99.90;;;;;;2090508;28;20066;-65
2024/03/20 04:17:12;;;;;;;4.13;3.05;;;9.90;99.90;;;;;;2093514;28;20369;-66
2024/03/20 04:18:12;;;;;;;3.65;3.00;;;9.90;99.90;;;;;;2093244;28;20047;-64
2024/03/20 04:19:13;;;;;;;3.15;2.80;;;9.90;99.90;;;;;;2093226;28;20036;-66
2024/03/20 04:20:14;;;;;;;4.65;3.22;;;9.90;99.90;;;;;;2093572;28;20048;-71
2024/03/20 04:21:15;;;;;;;4.63;3.50;;;9.90;99.90;;;;;;2092729;28;20104;-65
2024/03/20 04:22:15;;;;;;;3.95;3.42;;;9.90;99.90;;;;;;2091370;28;20033;-66
2024/03/20 04:23:16;;;;;;;6.72;3.28;;;9.90;99.90;;;;;;2093705;28;20027;-66
2024/03/20 04:24:17;;;;;;;5.60;3.22;;;9.80;99.90;;;;;;2092040;28;20021;-65
2024/03/20 04:25:17;;;;;;;5.57;2.92;;;9.80;99.90;;;;;;2094681;28;20487;-65
2024/03/20 04:26:19;;;;;;;5.85;3.63;;;9.80;99.90;;;;;;2091362;28;20100;-65
2024/03/20 04:27:20;;;;;;;5.47;3.50;;;9.80;99.90;;;;;;2092550;28;20025;-65
2024/03/20 04:28:21;;;;;;;5.95;3.25;;;9.80;99.90;;;;;;2092488;28;20112;-65
2024/03/20 04:29:21;;;;;;;4.43;2.97;;;9.80;99.90;;;;;;2092667;28;20025;-65
2024/03/20 04:30:22;;;;;;;4.80;3.40;;;9.80;99.90;;;;;;2092672;28;20061;-65
2024/03/20 04:31:23;;;;;;;3.78;3.03;;;9.80;99.90;;;;;;2093260;28;20387;-71
2024/03/20 04:32:25;;;;;;;5.55;2.92;;;9.80;99.90;;;;;;2092818;28;20120;-71
2024/03/20 04:33:25;;;;;;;2.78;2.58;;;9.80;99.90;;;;;;2093579;28;20031;-70
2024/03/20 04:34:26;;;;;;;3.25;2.85;;;9.80;99.90;;;;;;2093357;28;20495;-70
2024/03/20 04:35:26;;;;;;;5.00;2.58;;;9.80;99.90;;;;;;2093149;28;20059;-71
2024/03/20 04:36:27;;;;;;;3.42;2.70;;;9.80;99.90;;;;;;2090092;28;20032;-71
2024/03/20 04:37:28;;;;;;;3.50;2.88;;;9.70;99.90;;;;;;2091964;28;20652;-71
2024/03/20 04:38:29;;;;;;;3.70;2.90;;;9.70;99.90;;;;;;2092295;28;20052;-71
2024/03/20 04:39:29;;;;;;;3.88;3.13;;;9.70;99.90;;;;;;2092690;28;20028;-71
2024/03/20 04:40:30;;;;;;;5.13;2.83;;;9.70;99.90;;;;;;2093498;28;20393;-71
2024/03/20 04:41:31;;;;;;;5.50;3.30;;;9.70;99.90;;;;;;2092421;28;20063;-71
2024/03/20 04:42:33;;;;;;;4.50;3.88;;;9.70;99.90;;;;;;2092391;28;20365;-71
2024/03/20 04:43:34;;;;;;;4.47;3.25;;;9.70;99.90;;;;;;2093941;28;20928;-71
2024/03/20 04:44:35;;;;;;;4.22;3.25;;;9.70;99.90;;;;;;2091942;28;20382;-71
2024/03/20 04:45:35;;;;;;;3.00;2.80;;;9.70;99.90;;;;;;2092942;28;20032;-70
2024/03/20 04:46:36;;;;;;;3.85;2.92;;;9.60;99.90;;;;;;2094885;28;20068;-70
2024/03/20 04:47:36;;;;;;;4.45;2.97;;;9.60;99.90;;;;;;2092824;28;20028;-71
2024/03/20 04:48:37;;;;;;;4.70;3.10;;;9.60;99.90;;;;;;2093773;28;20049;-71
2024/03/20 04:49:37;;;;;;;3.80;2.78;;;9.60;99.90;;;;;;2092971;28;20048;-71
2024/03/20 04:50:38;;;;;;;3.40;2.70;;;9.60;99.90;;;;;;2092001;28;20021;-70
2024/03/20 04:51:39;;;;;;;3.97;2.95;;;9.60;99.90;;;;;;2093181;28;20031;-71
2024/03/20 04:52:39;;;;;;;3.28;2.88;;;9.60;99.90;;;;;;2090609;28;20040;-71
2024/03/20 04:53:40;;;;;;;4.75;3.17;;;9.60;99.90;;;;;;2091001;28;20508;-71
2024/03/20 04:54:40;;;;;;;3.65;2.97;;;9.50;99.90;;;;;;2093266;28;20124;-70
2024/03/20 04:55:41;;;;;;;4.63;3.55;;;9.50;99.90;;;;;;2091873;28;20074;-71
2024/03/20 04:56:41;;;;;;;6.15;2.92;;;9.50;99.90;;;;;;2093479;28;20447;-71
2024/03/20 04:57:42;;;;;;;4.68;3.40;;;9.50;99.90;;;;;;2090109;28;20106;-71
2024/03/20 04:58:42;;;;;;;4.25;3.20;;;9.50;99.90;;;;;;2091477;28;20025;-71
2024/03/20 04:59:43;;;;;;;4.53;3.50;;;9.50;99.90;;;;;;2092451;28;20393;-71
2024/03/20 05:00:43;;;;;;;4.88;3.70;;;9.50;99.90;;;;;;2091607;28;20092;-69
2024/03/20 05:01:44;;;;;;;5.70;3.80;;;9.50;99.90;;;;;;2094065;28;20031;-71
2024/03/20 05:02:45;;;;;;;4.25;3.33;;;9.50;99.90;;;;;;2094680;28;20492;-71
2024/03/20 05:03:45;;;;;;;6.35;3.28;;;9.40;99.90;;;;;;2093636;28;20436;-70
2024/03/20 05:04:46;;;;;;;3.80;3.15;;;9.40;99.90;;;;;;2096967;28;20108;-71
2024/03/20 05:05:46;;;;;;;4.80;3.33;;;9.50;99.90;;;;;;2093616;28;20029;-71
2024/03/20 05:06:47;;;;;;;4.85;3.17;;;9.40;99.90;;;;;;2093629;28;20021;-71
2024/03/20 05:07:48;;;;;;;4.28;2.88;;;9.40;99.90;;;;;;2094855;28;20033;-70
2024/03/20 05:08:48;;;;;;;3.35;2.75;;;9.40;99.90;;;;;;2094189;28;20024;-71
2024/03/20 05:09:49;;;;;;;4.35;3.17;;;9.40;99.90;;;;;;2094614;28;20034;-71
2024/03/20 05:10:49;;;;;;;5.88;3.53;;;9.40;99.90;;;;;;2092518;28;20024;-71
2024/03/20 05:11:50;;;;;;;3.20;2.90;;;9.40;99.90;;;;;;2093991;28;20048;-69
2024/03/20 05:12:50;;;;;;;3.33;3.03;;;9.40;99.90;;;;;;2094809;28;20086;-69
2024/03/20 05:13:51;;;;;;;4.22;3.28;;;9.40;99.90;;;;;;2093996;28;20745;-71
2024/03/20 05:14:52;;;;;;;4.10;3.28;;;9.40;99.90;;;;;;2093969;28;20028;-70
2024/03/20 05:15:52;;;;;;;3.85;3.30;;;9.40;99.90;;;;;;2091835;28;20108;-70
2024/03/20 05:16:53;;;;;;;4.25;3.17;;;9.40;99.90;;;;;;2093509;28;20119;-72
2024/03/20 05:17:53;;;;;;;3.13;2.45;;;9.40;99.90;;;;;;2094423;28;20025;-70